createdAt,value
2022-08-08T00:00:52.541Z,15.40
2022-08-08T00:02:50.367Z,15.40
2022-08-08T00:05:43.696Z,15.30
2022-08-08T00:08:29.508Z,15.30
2022-08-08T00:11:08.075Z,15.20
2022-08-08T00:14:16.656Z,15.20
2022-08-08T00:16:46.720Z,15.20
2022-08-08T00:19:27.289Z,15.10
2022-08-08T00:22:04.169Z,15.10
2022-08-08T00:24:38.860Z,15.10
2022-08-08T00:27:09.577Z,15.00
2022-08-08T00:29:47.205Z,15.00
2022-08-08T00:32:33.860Z,15.00
2022-08-08T00:35:22.569Z,14.90
2022-08-08T00:38:31.976Z,14.90
2022-08-08T00:41:55.617Z,14.90
2022-08-08T00:44:31.895Z,14.80
2022-08-08T00:47:23.863Z,14.80
2022-08-08T00:50:09.314Z,14.80
2022-08-08T00:52:53.895Z,14.70
2022-08-08T00:55:52.995Z,14.70
2022-08-08T00:59:00.856Z,14.60
2022-08-08T01:02:01.341Z,14.50
2022-08-08T01:04:54.924Z,14.50
2022-08-08T01:07:57.007Z,14.40
2022-08-08T01:11:13.693Z,14.40
2022-08-08T01:14:05.995Z,14.30
2022-08-08T01:16:54.953Z,14.30
2022-08-08T01:19:52.145Z,14.30
2022-08-08T01:22:44.884Z,14.30
2022-08-08T01:25:45.369Z,14.30
2022-08-08T01:28:44.693Z,14.20
2022-08-08T01:31:34.290Z,14.10
2022-08-08T01:34:51.528Z,14.10
2022-08-08T01:38:10.573Z,14.10
2022-08-08T01:41:17.237Z,14.10
2022-08-08T01:44:03.065Z,14.00
2022-08-08T01:46:59.289Z,14.00
2022-08-08T01:49:47.795Z,14.00
2022-08-08T01:55:17.604Z,14.00
2022-08-08T01:56:28.800Z,14.00
2022-08-08T01:58:59.531Z,13.90
2022-08-08T02:02:41.482Z,13.90
2022-08-08T02:05:56.320Z,13.80
2022-08-08T02:08:56.093Z,13.80
2022-08-08T02:11:59.415Z,13.80
2022-08-08T02:15:01.298Z,13.70
2022-08-08T02:18:01.434Z,13.70
2022-08-08T02:20:59.887Z,13.70
2022-08-08T02:23:35.250Z,13.70
2022-08-08T02:26:12.070Z,13.70
2022-08-08T02:29:18.717Z,13.70
2022-08-08T02:32:26.160Z,13.60
2022-08-08T02:35:08.488Z,13.60
2022-08-08T02:38:15.431Z,13.60
2022-08-08T02:41:58.813Z,13.60
2022-08-08T02:44:38.508Z,13.60
2022-08-08T02:47:47.060Z,13.60
2022-08-08T02:50:56.368Z,13.60
2022-08-08T02:53:41.449Z,13.60
2022-08-08T02:56:36.837Z,13.50
2022-08-08T02:59:57.746Z,13.60
2022-08-08T03:03:09.854Z,13.60
2022-08-08T03:06:09.498Z,13.60
2022-08-08T03:09:00.401Z,13.50
2022-08-08T03:12:02.558Z,13.50
2022-08-08T03:15:59.704Z,13.50
2022-08-08T03:18:07.449Z,13.50
2022-08-08T03:20:51.823Z,13.50
2022-08-08T03:23:30.289Z,13.40
2022-08-08T03:26:07.729Z,13.40
2022-08-08T03:28:38.312Z,13.40
2022-08-08T03:31:26.025Z,13.30
2022-08-08T03:34:00.658Z,13.30
2022-08-08T03:36:31.167Z,13.30
2022-08-08T03:39:07.697Z,13.30
2022-08-08T03:42:26.495Z,13.30
2022-08-08T03:44:38.588Z,13.20
2022-08-08T03:47:19.640Z,13.20
2022-08-08T03:50:00.973Z,13.20
2022-08-08T03:52:36.169Z,13.10
2022-08-08T03:55:20.459Z,13.20
2022-08-08T03:58:30.319Z,13.10
2022-08-08T04:01:24.503Z,13.10
2022-08-08T04:03:59.029Z,13.10
2022-08-08T04:06:32.182Z,13.10
2022-08-08T04:09:10.595Z,13.10
2022-08-08T04:11:48.437Z,13.10
2022-08-08T04:14:36.450Z,13.10
2022-08-08T04:17:22.586Z,13.10
2022-08-08T04:19:56.336Z,13.10
2022-08-08T04:22:29.620Z,13.10
2022-08-08T04:24:58.870Z,13.10
2022-08-08T04:28:03.327Z,13.20
2022-08-08T04:30:17.985Z,13.20
2022-08-08T04:32:50.305Z,13.30
2022-08-08T04:35:22.825Z,13.30
2022-08-08T04:37:55.020Z,13.30
2022-08-08T04:40:33.109Z,13.40
2022-08-08T04:43:03.192Z,13.40
2022-08-08T04:45:37.997Z,13.40
2022-08-08T04:48:05.997Z,13.50
2022-08-08T04:50:38.546Z,13.50
2022-08-08T04:53:14.116Z,13.50
2022-08-08T04:55:57.006Z,13.60
2022-08-08T04:58:27.513Z,13.70
2022-08-08T05:00:57.428Z,13.70
2022-08-08T05:04:09.526Z,13.80
2022-08-08T05:06:25.987Z,13.80
2022-08-08T05:09:02.262Z,13.90
2022-08-08T05:11:39.274Z,14.00
2022-08-08T05:14:12.451Z,14.10
2022-08-08T05:16:53.749Z,14.20
2022-08-08T05:20:11.903Z,14.30
2022-08-08T05:22:19.052Z,14.40
2022-08-08T05:24:49.347Z,14.60
2022-08-08T05:27:21.599Z,14.80
2022-08-08T05:29:50.228Z,15.00
2022-08-08T05:32:24.734Z,17.10
2022-08-08T05:34:59.356Z,19.00
2022-08-08T05:37:49.053Z,20.70
2022-08-08T05:40:28.738Z,21.70
2022-08-08T05:43:38.571Z,23.00
2022-08-08T05:46:03.990Z,23.10
2022-08-08T05:48:36.041Z,24.20
2022-08-08T05:51:15.176Z,25.00
2022-08-08T05:54:26.012Z,25.50
2022-08-08T05:56:42.414Z,26.10
2022-08-08T05:59:59.792Z,26.40
2022-08-08T06:02:41.000Z,26.10
2022-08-08T06:05:32.942Z,26.10
2022-08-08T06:08:09.560Z,26.40
2022-08-08T06:10:40.898Z,26.30
2022-08-08T06:13:12.521Z,26.30
2022-08-08T06:15:51.374Z,26.80
2022-08-08T06:18:32.018Z,27.60
2022-08-08T06:21:03.691Z,28.00
2022-08-08T06:23:53.126Z,28.20
2022-08-08T06:26:43.311Z,28.60
2022-08-08T06:29:26.373Z,29.00
2022-08-08T06:32:09.928Z,29.80
2022-08-08T06:34:43.923Z,29.90
2022-08-08T06:37:26.816Z,30.40
2022-08-08T06:40:03.860Z,31.00
2022-08-08T06:42:36.110Z,30.20
2022-08-08T06:45:06.213Z,30.00
2022-08-08T06:47:58.088Z,30.30
2022-08-08T06:50:32.346Z,30.10
2022-08-08T06:53:09.834Z,30.40
2022-08-08T06:55:47.087Z,30.00
2022-08-08T06:58:15.275Z,31.20
2022-08-08T07:00:47.957Z,31.10
2022-08-08T07:03:52.323Z,30.90
2022-08-08T07:06:33.202Z,30.50
2022-08-08T07:09:18.130Z,31.00
2022-08-08T07:11:51.097Z,30.90
2022-08-08T07:14:28.122Z,31.20
2022-08-08T07:17:08.802Z,31.10
2022-08-08T07:19:40.578Z,30.60
2022-08-08T07:22:18.418Z,30.40
2022-08-08T07:24:53.838Z,30.50
2022-08-08T07:27:27.827Z,31.30
2022-08-08T07:30:16.808Z,31.30
2022-08-08T07:32:49.785Z,31.50
2022-08-08T07:35:17.914Z,31.40
2022-08-08T07:38:04.844Z,31.50
2022-08-08T07:41:04.204Z,31.50
2022-08-08T07:43:37.746Z,31.30
2022-08-08T07:46:23.791Z,31.10
2022-08-08T07:48:59.386Z,31.30
2022-08-08T07:51:44.797Z,31.40
2022-08-08T07:54:33.209Z,30.90
2022-08-08T07:57:08.813Z,29.60
2022-08-08T07:59:45.875Z,29.50
2022-08-08T08:02:35.535Z,29.50
2022-08-08T08:05:21.444Z,29.30
2022-08-08T08:07:59.811Z,29.90
2022-08-08T08:10:35.586Z,29.70
2022-08-08T08:13:26.042Z,29.30
2022-08-08T08:16:19.231Z,28.80
2022-08-08T08:19:02.215Z,28.60
2022-08-08T08:21:57.202Z,28.30
2022-08-08T08:24:32.485Z,28.30
2022-08-08T08:27:03.809Z,28.40
2022-08-08T08:29:32.907Z,28.30
2022-08-08T08:32:05.332Z,28.30
2022-08-08T08:34:35.434Z,28.20
2022-08-08T08:37:08.355Z,27.70
2022-08-08T08:40:01.402Z,27.20
2022-08-08T08:42:32.025Z,26.40
2022-08-08T08:45:22.752Z,26.30
2022-08-08T08:47:58.437Z,26.30
2022-08-08T08:50:32.595Z,26.00
2022-08-08T08:53:45.337Z,26.00
2022-08-08T08:56:02.779Z,25.70
2022-08-08T08:58:39.568Z,25.80
2022-08-08T09:01:13.107Z,26.10
2022-08-08T09:03:46.675Z,25.60
2022-08-08T09:06:28.572Z,25.70
2022-08-08T09:09:26.358Z,25.80
2022-08-08T09:12:11.143Z,25.50
2022-08-08T09:14:44.995Z,25.40
2022-08-08T09:17:18.749Z,25.10
2022-08-08T09:22:01.478Z,25.10
2022-08-08T09:22:47.468Z,25.00
2022-08-08T09:25:15.414Z,24.90
2022-08-08T09:27:58.012Z,24.90
2022-08-08T09:30:31.259Z,25.00
2022-08-08T09:33:54.221Z,24.90
2022-08-08T09:35:52.430Z,24.90
2022-08-08T09:38:52.436Z,25.00
2022-08-08T09:41:55.087Z,25.40
2022-08-08T09:45:15.769Z,25.60
2022-08-08T09:48:10.061Z,25.60
2022-08-08T09:50:50.131Z,25.60
2022-08-08T09:53:23.549Z,25.80
2022-08-08T09:56:07.021Z,25.70
2022-08-08T09:58:40.626Z,25.80
2022-08-08T10:01:15.350Z,25.90
2022-08-08T10:04:02.264Z,25.90
2022-08-08T10:06:32.458Z,25.70
2022-08-08T10:09:00.225Z,25.70
2022-08-08T10:12:25.816Z,25.70
2022-08-08T10:14:27.724Z,25.80
2022-08-08T10:17:38.629Z,26.10
2022-08-08T10:19:58.667Z,26.40
2022-08-08T10:22:30.395Z,26.10
2022-08-08T10:25:07.160Z,26.00
2022-08-08T10:27:44.236Z,26.00
2022-08-08T10:30:16.456Z,25.90
2022-08-08T10:33:00.983Z,25.90
2022-08-08T10:36:09.110Z,26.10
2022-08-08T10:38:19.666Z,26.40
2022-08-08T10:40:51.520Z,26.60
2022-08-08T10:43:18.772Z,26.60
2022-08-08T10:45:55.701Z,26.60
2022-08-08T10:48:55.857Z,26.40
2022-08-08T10:51:26.274Z,26.50
2022-08-08T10:53:59.761Z,26.60
2022-08-08T10:56:36.674Z,26.40
2022-08-08T10:59:14.595Z,26.50
2022-08-08T11:01:49.638Z,26.30
2022-08-08T11:04:38.451Z,26.20
2022-08-08T11:07:07.063Z,26.50
2022-08-08T11:09:34.640Z,26.60
2022-08-08T11:12:12.778Z,26.90
2022-08-08T11:14:52.366Z,27.00
2022-08-08T11:17:58.165Z,26.90
2022-08-08T11:20:13.406Z,26.60
2022-08-08T11:22:41.782Z,26.20
2022-08-08T11:25:14.245Z,26.30
2022-08-08T11:27:47.177Z,26.70
2022-08-08T11:30:24.013Z,26.80
2022-08-08T11:32:58.538Z,26.80
2022-08-08T11:35:42.361Z,27.00
2022-08-08T11:38:39.526Z,26.80
2022-08-08T11:41:00.763Z,26.90
2022-08-08T11:43:39.195Z,27.10
2022-08-08T11:46:13.346Z,27.10
2022-08-08T11:48:47.203Z,27.20
2022-08-08T11:51:38.897Z,27.60
2022-08-08T11:54:04.483Z,27.50
2022-08-08T11:56:35.681Z,27.60
2022-08-08T11:59:10.837Z,27.60
2022-08-08T12:01:38.252Z,27.60
2022-08-08T12:04:07.816Z,27.40
2022-08-08T12:06:35.072Z,27.30
2022-08-08T12:09:07.609Z,27.20
2022-08-08T12:11:39.760Z,27.00
2022-08-08T12:14:07.838Z,27.00
2022-08-08T12:16:49.454Z,27.10
2022-08-08T12:19:31.154Z,27.20
2022-08-08T12:22:12.955Z,27.20
2022-08-08T12:24:54.325Z,27.30
2022-08-08T12:27:26.847Z,27.50
2022-08-08T12:30:04.441Z,27.60
2022-08-08T12:32:42.919Z,27.60
2022-08-08T12:35:23.385Z,27.80
2022-08-08T12:38:06.438Z,27.80
2022-08-08T12:40:54.328Z,27.70
2022-08-08T12:43:43.399Z,27.50
2022-08-08T12:46:24.811Z,27.40
2022-08-08T12:49:21.950Z,27.50
2022-08-08T12:51:58.942Z,27.70
2022-08-08T12:54:27.929Z,27.60
2022-08-08T12:56:56.085Z,27.80
2022-08-08T12:59:36.663Z,27.70
2022-08-08T13:02:28.440Z,27.50
2022-08-08T13:05:02.037Z,27.50
2022-08-08T13:08:03.442Z,27.30
2022-08-08T13:10:36.517Z,27.30
2022-08-08T13:13:35.280Z,27.20
2022-08-08T13:16:25.874Z,27.30
2022-08-08T13:19:02.577Z,27.30
2022-08-08T13:21:53.529Z,27.40
2022-08-08T13:24:40.514Z,27.30
2022-08-08T13:27:15.378Z,27.30
2022-08-08T13:29:54.239Z,27.50
2022-08-08T13:32:23.836Z,27.30
2022-08-08T13:34:57.413Z,27.50
2022-08-08T13:38:05.488Z,27.50
2022-08-08T13:40:27.436Z,27.30
2022-08-08T13:42:55.523Z,27.20
2022-08-08T13:45:24.328Z,27.30
2022-08-08T13:48:02.999Z,27.30
2022-08-08T13:50:43.933Z,27.20
2022-08-08T13:53:36.432Z,27.20
2022-08-08T13:56:11.004Z,27.00
2022-08-08T13:58:57.893Z,27.00
2022-08-08T14:01:52.458Z,27.00
2022-08-08T14:04:22.194Z,27.10
2022-08-08T14:06:58.704Z,27.20
2022-08-08T14:10:04.733Z,27.40
2022-08-08T14:12:29.153Z,27.30
2022-08-08T14:14:56.869Z,27.30
2022-08-08T14:17:57.338Z,27.40
2022-08-08T14:20:15.637Z,27.30
2022-08-08T14:23:10.522Z,27.20
2022-08-08T14:25:57.498Z,27.20
2022-08-08T14:28:29.385Z,27.00
2022-08-08T14:31:09.348Z,27.10
2022-08-08T14:33:37.323Z,27.00
2022-08-08T14:36:09.391Z,27.10
2022-08-08T14:38:53.030Z,27.00
2022-08-08T14:41:53.651Z,26.90
2022-08-08T14:44:21.133Z,26.90
2022-08-08T14:47:00.140Z,27.00
2022-08-08T14:49:37.894Z,26.90
2022-08-08T14:52:24.156Z,27.00
2022-08-08T14:54:51.190Z,26.80
2022-08-08T14:57:18.208Z,26.70
2022-08-08T14:59:51.257Z,26.70
2022-08-08T15:02:25.415Z,26.70
2022-08-08T15:04:52.983Z,26.60
2022-08-08T15:07:22.356Z,26.70
2022-08-08T15:09:52.455Z,26.70
2022-08-08T15:12:27.136Z,26.60
2022-08-08T15:14:55.589Z,26.60
2022-08-08T15:17:23.065Z,26.50
2022-08-08T15:19:51.495Z,26.70
2022-08-08T15:22:23.591Z,26.60
2022-08-08T15:24:51.934Z,26.40
2022-08-08T15:28:04.077Z,26.40
2022-08-08T15:30:08.221Z,26.30
2022-08-08T15:32:40.432Z,26.20
2022-08-08T15:35:10.495Z,26.10
2022-08-08T15:37:38.008Z,26.10
2022-08-08T15:40:07.405Z,26.00
2022-08-08T15:42:38.865Z,25.90
2022-08-08T15:45:06.919Z,26.00
2022-08-08T15:47:33.716Z,25.90
2022-08-08T15:50:01.707Z,25.90
2022-08-08T15:52:29.593Z,25.80
2022-08-08T15:54:58.123Z,25.60
2022-08-08T15:57:24.812Z,25.60
2022-08-08T16:00:06.362Z,25.60
2022-08-08T16:02:50.230Z,25.60
2022-08-08T16:05:21.518Z,25.60
2022-08-08T16:07:51.604Z,25.40
2022-08-08T16:13:13.800Z,25.30
2022-08-08T16:13:34.594Z,25.20
2022-08-08T16:16:16.408Z,25.10
2022-08-08T16:18:57.337Z,25.10
2022-08-08T16:21:27.812Z,25.00
2022-08-08T16:23:56.124Z,24.90
2022-08-08T16:26:34.837Z,24.80
2022-08-08T16:29:17.793Z,24.70
2022-08-08T16:31:49.032Z,24.60
2022-08-08T16:34:21.241Z,24.60
2022-08-08T16:36:50.328Z,24.60
2022-08-08T16:39:59.374Z,24.60
2022-08-08T16:42:07.414Z,24.60
2022-08-08T16:44:47.370Z,24.50
2022-08-08T16:47:40.070Z,24.40
2022-08-08T16:50:15.834Z,24.40
2022-08-08T16:55:04.271Z,24.30
2022-08-08T16:55:55.387Z,24.20
2022-08-08T16:58:27.020Z,24.20
2022-08-08T17:01:00.199Z,24.10
2022-08-08T17:03:58.123Z,24.10
2022-08-08T17:06:37.742Z,24.10
2022-08-08T17:09:02.433Z,24.10
2022-08-08T17:11:39.567Z,24.10
2022-08-08T17:14:19.312Z,24.10
2022-08-08T17:16:57.834Z,24.00
2022-08-08T17:19:30.213Z,24.00
2022-08-08T17:22:01.243Z,24.00
2022-08-08T17:24:30.446Z,23.90
2022-08-08T17:26:59.080Z,23.90
2022-08-08T17:29:27.244Z,23.70
2022-08-08T17:31:57.536Z,23.80
2022-08-08T17:34:53.371Z,23.70
2022-08-08T17:37:13.640Z,23.70
2022-08-08T17:40:02.890Z,23.70
2022-08-08T17:42:28.480Z,23.70
2022-08-08T17:44:55.378Z,23.60
2022-08-08T17:47:28.084Z,23.50
2022-08-08T17:50:01.505Z,23.50
2022-08-08T17:52:35.086Z,23.40
2022-08-08T17:55:05.734Z,23.40
2022-08-08T17:57:50.521Z,23.30
2022-08-08T18:00:21.361Z,23.30
2022-08-08T18:03:07.512Z,23.20
2022-08-08T18:05:48.530Z,23.20
2022-08-08T18:08:24.802Z,23.10
2022-08-08T18:11:11.771Z,23.10
2022-08-08T18:13:42.584Z,23.10
2022-08-08T18:16:10.479Z,23.00
2022-08-08T18:18:42.629Z,23.00
2022-08-08T18:21:24.672Z,23.00
2022-08-08T18:23:55.784Z,22.90
2022-08-08T18:26:23.486Z,22.90
2022-08-08T18:28:55.514Z,22.80
2022-08-08T18:31:23.298Z,22.80
2022-08-08T18:34:11.802Z,22.70
2022-08-08T18:36:38.022Z,22.70
2022-08-08T18:39:05.863Z,22.60
2022-08-08T18:41:51.347Z,22.50
2022-08-08T18:44:19.851Z,22.50
2022-08-08T18:46:56.113Z,22.40
2022-08-08T18:49:40.862Z,22.30
2022-08-08T18:52:18.495Z,22.30
2022-08-08T18:54:59.539Z,22.20
2022-08-08T18:57:31.982Z,22.10
2022-08-08T19:00:09.426Z,22.10
2022-08-08T19:02:48.571Z,22.00
2022-08-08T19:05:22.334Z,21.90
2022-08-08T19:07:52.592Z,21.80
2022-08-08T19:10:19.495Z,21.60
2022-08-08T19:12:53.133Z,21.50
2022-08-08T19:15:21.760Z,21.50
2022-08-08T19:18:32.893Z,21.40
2022-08-08T19:20:39.236Z,21.30
2022-08-08T19:23:07.613Z,21.30
2022-08-08T19:26:22.514Z,21.20
2022-08-08T19:28:24.264Z,21.10
2022-08-08T19:31:03.919Z,21.00
2022-08-08T19:33:52.202Z,20.90
2022-08-08T19:36:25.288Z,20.90
2022-08-08T19:38:56.523Z,20.80
2022-08-08T19:41:29.233Z,20.70
2022-08-08T19:44:04.010Z,20.60
2022-08-08T19:46:39.526Z,20.60
2022-08-08T19:49:06.223Z,20.50
2022-08-08T19:51:41.492Z,20.50
2022-08-08T19:54:11.426Z,20.50
2022-08-08T19:56:40.639Z,20.40
2022-08-08T19:59:09.617Z,20.40
2022-08-08T20:02:02.217Z,20.30
2022-08-08T20:04:23.876Z,20.30
2022-08-08T20:06:50.987Z,20.20
2022-08-08T20:09:22.676Z,20.20
2022-08-08T20:11:50.211Z,20.10
2022-08-08T20:14:33.449Z,20.10
2022-08-08T20:17:03.258Z,20.00
2022-08-08T20:19:34.603Z,20.00
2022-08-08T20:22:20.847Z,20.00
2022-08-08T20:24:57.907Z,20.00
2022-08-08T20:27:27.142Z,19.90
2022-08-08T20:30:12.046Z,19.80
2022-08-08T20:32:59.417Z,19.70
2022-08-08T20:35:32.643Z,19.80
2022-08-08T20:38:15.034Z,19.70
2022-08-08T20:40:47.391Z,19.60
2022-08-08T20:43:43.119Z,19.60
2022-08-08T20:46:04.412Z,19.60
2022-08-08T20:48:31.532Z,19.50
2022-08-08T20:50:58.311Z,19.50
2022-08-08T20:53:58.140Z,19.50
2022-08-08T20:56:14.026Z,19.40
2022-08-08T20:58:46.856Z,19.40
2022-08-08T21:01:20.265Z,19.40
2022-08-08T21:03:55.675Z,19.30
2022-08-08T21:06:53.287Z,19.30
2022-08-08T21:09:15.868Z,19.20
2022-08-08T21:11:50.454Z,19.20
2022-08-08T21:14:33.522Z,19.10
2022-08-08T21:17:06.312Z,19.10
2022-08-08T21:19:46.132Z,19.00
2022-08-08T21:22:15.329Z,19.00
2022-08-08T21:24:52.491Z,18.90
2022-08-08T21:27:39.021Z,18.90
2022-08-08T21:30:19.081Z,18.90
2022-08-08T21:32:51.049Z,18.80
2022-08-08T21:36:17.624Z,18.80
2022-08-08T21:38:11.953Z,18.70
2022-08-08T21:40:55.151Z,18.60
2022-08-08T21:43:25.886Z,18.60
2022-08-08T21:48:07.003Z,18.60
2022-08-08T21:48:49.323Z,18.60
2022-08-08T21:51:20.357Z,18.50
2022-08-08T21:54:22.850Z,18.50
2022-08-08T21:56:55.796Z,18.40
2022-08-08T21:59:22.890Z,18.30
2022-08-08T22:01:52.332Z,18.40
2022-08-08T22:04:24.577Z,18.30
2022-08-08T22:06:54.193Z,18.20
2022-08-08T22:09:26.837Z,18.20
2022-08-08T22:12:08.622Z,18.10
2022-08-08T22:14:36.800Z,18.00
2022-08-08T22:17:04.518Z,18.00
2022-08-08T22:20:12.758Z,18.00
2022-08-08T22:22:19.020Z,18.00
2022-08-08T22:24:45.718Z,17.90
2022-08-08T22:27:14.972Z,17.90
2022-08-08T22:30:01.207Z,17.80
2022-08-08T22:32:29.672Z,17.80
2022-08-08T22:34:57.976Z,17.80
2022-08-08T22:37:48.911Z,17.70
2022-08-08T22:40:17.155Z,17.60
2022-08-08T22:42:47.101Z,17.60
2022-08-08T22:45:14.621Z,17.60
2022-08-08T22:47:47.405Z,17.50
2022-08-08T22:50:27.291Z,17.50
2022-08-08T22:54:29.108Z,17.50
2022-08-08T22:55:57.959Z,17.40
2022-08-08T22:58:28.583Z,17.40
2022-08-08T23:00:57.909Z,17.30
2022-08-08T23:03:53.945Z,17.30
2022-08-08T23:06:17.865Z,17.30
2022-08-08T23:08:55.286Z,17.20
2022-08-08T23:11:58.099Z,17.20
2022-08-08T23:14:12.290Z,17.10
2022-08-08T23:16:47.045Z,17.10
2022-08-08T23:19:15.378Z,17.10
2022-08-08T23:21:42.970Z,17.00
2022-08-08T23:24:12.423Z,17.00
2022-08-08T23:26:39.694Z,16.90
2022-08-08T23:29:11.233Z,16.90
2022-08-08T23:31:38.859Z,16.90
2022-08-08T23:34:16.725Z,16.90
2022-08-08T23:36:45.705Z,16.90
2022-08-08T23:39:12.983Z,16.90
2022-08-08T23:41:46.278Z,16.80
2022-08-08T23:44:18.519Z,16.80
2022-08-08T23:49:02.866Z,16.80
2022-08-08T23:49:34.092Z,16.80
2022-08-08T23:52:05.956Z,16.70
2022-08-08T23:54:43.374Z,16.60
2022-08-08T23:57:26.930Z,16.60
